Time;durP1;ratioP1;P1;durP2;ratioP2;P2;SDS_P1;SDS_P2;PMS_P1;PMS_P2;Temp;Humidity;BMP_temperature;BMP_pressure;BME280_temperature;BME280_humidity;BME280_pressure;Samples;Min_cycle;Max_cycle;Signal;HPM_P1;HPM_P2
2022/12/02 00:02:28;;;;;;;30.55;4.18;;;;;;;4.23;78.10;101409.63;5020180;28;20073;-51
2022/12/02 00:04:58;;;;;;;37.13;4.28;;;;;;;4.22;78.74;101410.44;5014059;28;20139;-47
2022/12/02 00:07:25;;;;;;;57.92;4.72;;;;;;;4.23;78.69;101407.06;5017110;28;20501;-51
2022/12/02 00:09:52;;;;;;;54.00;4.72;;;;;;;4.21;78.46;101393.28;5017221;28;20135;-49
2022/12/02 00:15:00;;;;;;;67.97;4.63;;;;;;;4.22;78.70;101392.47;5063942;28;20380;-53
2022/12/02 00:17:26;;;;;;;41.75;3.90;;;;;;;4.23;78.43;101386.53;5038187;28;20048;-53
2022/12/02 00:19:53;;;;;;;69.13;4.43;;;;;;;4.22;78.83;101374.53;5035644;28;20052;-53
2022/12/02 00:22:20;;;;;;;50.85;3.83;;;;;;;4.20;78.56;101378.69;5043922;28;20048;-46
2022/12/02 00:24:47;;;;;;;45.33;3.53;;;;;;;4.18;78.50;101375.16;5041109;28;20052;-49
2022/12/02 00:27:14;;;;;;;35.70;3.17;;;;;;;4.15;78.74;101373.34;5042266;28;20841;-49
2022/12/02 00:29:40;;;;;;;37.78;3.35;;;;;;;4.13;78.26;101375.00;5039908;28;20567;-46
2022/12/02 00:32:07;;;;;;;40.38;3.25;;;;;;;4.10;78.11;101375.72;5036364;28;20947;-48
2022/12/02 00:34:34;;;;;;;51.00;2.53;;;;;;;4.07;78.21;101375.59;5030942;28;20050;-53
2022/12/02 00:37:00;;;;;;;50.72;2.80;;;;;;;4.00;78.44;101373.53;5044006;28;20075;-47
2022/12/02 00:39:27;;;;;;;41.10;2.40;;;;;;;3.97;78.60;101368.28;5056908;28;20052;-55
2022/12/02 00:41:53;;;;;;;28.83;2.08;;;;;;;3.94;77.98;101368.13;5063396;28;20491;-51
2022/12/02 00:47:06;;;;;;;35.67;2.10;;;;;;;3.84;78.15;101372.84;5050044;28;20274;-48
2022/12/02 00:49:33;;;;;;;33.40;1.77;;;;;;;3.81;78.19;101364.13;5052561;28;20134;-49
2022/12/02 00:52:00;;;;;;;36.33;1.95;;;;;;;3.78;78.27;101367.41;5055038;28;20389;-47
2022/12/02 00:54:26;;;;;;;46.63;2.22;;;;;;;3.77;78.16;101364.78;5055840;28;20040;-47
2022/12/02 00:56:53;;;;;;;17.63;1.60;;;;;;;3.75;78.01;101361.28;5058310;28;20075;-49
2022/12/02 00:59:20;;;;;;;22.00;1.65;;;;;;;3.69;78.17;101362.75;5055373;28;20064;-51
2022/12/02 01:01:47;;;;;;;23.77;2.15;;;;;;;3.67;78.51;101363.47;5062564;28;20110;-50
2022/12/02 01:04:14;;;;;;;16.35;1.63;;;;;;;3.65;78.21;101368.53;5060120;28;20068;-47
2022/12/02 01:06:40;;;;;;;25.10;1.50;;;;;;;3.60;77.91;101368.34;5048701;28;20051;-48
2022/12/02 01:09:07;;;;;;;22.13;1.38;;;;;;;3.56;77.82;101353.63;5052126;28;20524;-54
2022/12/02 01:11:33;;;;;;;17.90;1.65;;;;;;;3.52;78.08;101354.28;5054877;28;20507;-50
2022/12/02 01:14:00;;;;;;;15.73;1.20;;;;;;;3.49;78.35;101348.13;5050198;28;20045;-52
2022/12/02 01:16:26;;;;;;;19.52;1.50;;;;;;;3.45;77.72;101347.97;5055210;28;20053;-47
2022/12/02 01:18:53;;;;;;;13.15;1.48;;;;;;;3.43;77.66;101348.72;5055469;28;20049;-47
2022/12/02 01:21:20;;;;;;;20.55;1.80;;;;;;;3.41;77.85;101346.06;5050186;28;20041;-47
2022/12/02 01:23:46;;;;;;;21.67;1.98;;;;;;;3.40;78.49;101343.44;5050759;28;20101;-45
2022/12/02 01:26:13;;;;;;;27.58;2.17;;;;;;;3.39;77.69;101344.25;5044395;28;20053;-49
2022/12/02 01:28:40;;;;;;;9.75;1.42;;;;;;;3.38;78.26;101345.06;5049033;28;20594;-45
2022/12/02 01:31:06;;;;;;;10.07;1.58;;;;;;;3.38;78.48;101339.94;5042591;28;20105;-54
2022/12/02 01:33:33;;;;;;;21.50;1.83;;;;;;;3.40;78.77;101343.44;5048463;28;20041;-51
2022/12/02 01:35:59;;;;;;;7.25;1.33;;;;;;;3.38;78.60;101337.38;5040992;28;20057;-45
2022/12/02 01:38:26;;;;;;;13.75;1.67;;;;;;;3.34;77.78;101334.66;5043912;28;20120;-52
2022/12/02 01:40:53;;;;;;;13.27;1.27;;;;;;;3.32;78.19;101341.38;5043225;28;20077;-50
2022/12/02 01:43:19;;;;;;;21.20;1.90;;;;;;;3.30;78.46;101337.88;5042947;28;20536;-51
2022/12/02 01:45:46;;;;;;;24.58;1.92;;;;;;;3.28;77.85;101334.34;5036642;28;20111;-50
2022/12/02 01:48:13;;;;;;;12.52;2.03;;;;;;;3.28;78.10;101333.50;5046423;28;20048;-48
2022/12/02 01:50:39;;;;;;;22.17;2.05;;;;;;;3.30;78.28;101334.44;5035207;28;20127;-52
2022/12/02 01:53:06;;;;;;;23.88;2.13;;;;;;;3.30;78.70;101325.06;5045054;28;20044;-45
2022/12/02 01:55:33;;;;;;;28.42;2.58;;;;;;;3.31;78.52;101329.38;5048390;28;20509;-46
2022/12/02 01:58:00;;;;;;;25.17;1.77;;;;;;;3.31;78.31;101331.94;5049690;28;20098;-51
2022/12/02 02:00:27;;;;;;;22.60;2.17;;;;;;;3.32;78.69;101337.97;5041529;28;20135;-53
2022/12/02 02:02:54;;;;;;;31.67;1.80;;;;;;;3.32;78.16;101340.53;5049130;28;20048;-51
2022/12/02 02:05:30;;;;;;;12.13;1.65;;;;;;;3.29;78.02;101336.13;5045860;28;20065;-50
2022/12/02 02:08:03;;;;;;;30.27;2.60;;;;;;;3.30;78.71;101337.88;5044939;28;20053;-50
2022/12/02 02:10:30;;;;;;;30.38;2.28;;;;;;;3.28;78.33;101342.03;5045961;28;20079;-49
2022/12/02 02:12:57;;;;;;;19.98;1.73;;;;;;;3.27;78.02;101336.88;5024181;28;20160;-48
2022/12/02 02:15:24;;;;;;;16.92;2.08;;;;;;;3.28;78.18;101338.63;5045094;28;20061;-49
2022/12/02 02:17:53;;;;;;;36.50;2.67;;;;;;;3.26;78.85;101335.97;5043540;28;20077;-47
2022/12/02 02:20:23;;;;;;;52.03;3.42;;;;;;;3.28;77.98;101342.03;5039501;28;20044;-50
2022/12/02 02:25:39;;;;;;;29.73;2.58;;;;;;;3.30;78.46;101343.00;5040984;27;20761;-50
2022/12/02 02:28:06;;;;;;;5.13;1.67;;;;;;;3.32;78.81;101343.94;5021806;28;20045;-52
2022/12/02 02:30:34;;;;;;;34.67;2.45;;;;;;;3.34;78.23;101347.47;5018630;28;20141;-49
2022/12/02 02:33:04;;;;;;;28.02;2.05;;;;;;;3.35;78.15;101343.25;5018736;28;20060;-52
2022/12/02 02:35:33;;;;;;;31.38;1.33;;;;;;;3.34;78.68;101344.91;5021304;28;20069;-48
2022/12/02 02:38:00;;;;;;;20.65;1.52;;;;;;;3.31;78.60;101338.78;5016077;28;20505;-47
2022/12/02 02:40:28;;;;;;;27.15;2.00;;;;;;;3.27;78.47;101337.72;5018228;28;20140;-52
2022/12/02 02:42:59;;;;;;;16.65;1.52;;;;;;;3.25;77.71;101349.59;5016833;28;20133;-53
2022/12/02 02:45:28;;;;;;;11.65;1.60;;;;;;;3.22;78.10;101344.31;5016538;28;20058;-52
2022/12/02 02:47:56;;;;;;;13.45;1.58;;;;;;;3.19;78.07;101342.50;5019972;28;20910;-48
2022/12/02 02:50:23;;;;;;;26.35;2.05;;;;;;;3.17;77.86;101345.75;5016702;28;20456;-46
2022/12/02 02:52:51;;;;;;;26.38;2.90;;;;;;;3.16;78.53;101344.00;5011169;28;20124;-47
2022/12/02 02:55:20;;;;;;;17.83;1.40;;;;;;;3.13;78.01;101338.75;5020682;28;20132;-48
2022/12/02 02:57:48;;;;;;;45.28;2.47;;;;;;;3.12;78.56;101344.66;5016283;28;20084;-51
2022/12/02 03:00:17;;;;;;;19.40;1.75;;;;;;;3.10;78.51;101343.75;5016035;28;20953;-53
2022/12/02 03:02:48;;;;;;;26.05;1.75;;;;;;;3.10;78.28;101338.63;5016973;28;20170;-47
2022/12/02 03:05:15;;;;;;;29.23;2.58;;;;;;;3.11;77.86;101342.91;5018447;28;20051;-48
2022/12/02 03:07:42;;;;;;;37.78;2.60;;;;;;;3.12;77.88;101342.13;5018507;28;20128;-50
2022/12/02 03:10:09;;;;;;;27.90;2.13;;;;;;;3.12;78.67;101339.56;5017582;28;20600;-49
2022/12/02 03:12:36;;;;;;;24.40;2.38;;;;;;;3.13;77.83;101333.63;5020157;28;20417;-54
2022/12/02 03:15:04;;;;;;;17.50;2.35;;;;;;;3.15;78.64;101339.72;5020995;28;20478;-51
2022/12/02 03:17:31;;;;;;;38.67;2.28;;;;;;;3.16;78.00;101336.34;5016588;28;20148;-49
2022/12/02 03:19:58;;;;;;;49.15;2.38;;;;;;;3.18;78.22;101334.75;5018029;28;20081;-51
2022/12/02 03:22:25;;;;;;;30.13;2.15;;;;;;;3.21;78.13;101334.91;5018853;28;20103;-52
2022/12/02 03:24:51;;;;;;;32.05;2.72;;;;;;;3.22;78.76;101328.97;5019204;28;20069;-48
2022/12/02 03:27:18;;;;;;;34.55;2.60;;;;;;;3.25;78.99;101333.34;5021180;28;20052;-55
2022/12/02 03:29:45;;;;;;;41.22;2.92;;;;;;;3.26;78.35;101335.97;5018753;28;20485;-50
2022/12/02 03:32:12;;;;;;;20.02;2.00;;;;;;;3.27;78.40;101324.94;5015298;28;20096;-50
2022/12/02 03:34:40;;;;;;;32.53;2.72;;;;;;;3.28;78.76;101330.94;5017423;28;20045;-50
2022/12/02 03:37:08;;;;;;;33.70;2.58;;;;;;;3.29;78.83;101331.00;5002438;28;20576;-52
2022/12/02 03:39:36;;;;;;;33.92;2.05;;;;;;;3.29;78.39;101330.13;5005244;28;20088;-52
2022/12/02 03:42:03;;;;;;;53.47;3.25;;;;;;;3.29;78.79;101325.91;5007123;28;20069;-49
2022/12/02 03:44:30;;;;;;;51.00;3.22;;;;;;;3.28;78.38;101324.13;5002674;28;20128;-52
2022/12/02 03:46:57;;;;;;;51.22;3.15;;;;;;;3.28;78.50;101324.13;5003759;28;20856;-52
2022/12/02 03:49:24;;;;;;;39.58;3.15;;;;;;;3.27;79.10;101322.38;5002695;28;20140;-55
2022/12/02 03:51:51;;;;;;;38.65;3.05;;;;;;;3.28;79.10;101319.00;5007612;28;20108;-47
2022/12/02 03:54:18;;;;;;;58.40;3.38;;;;;;;3.27;79.00;101317.25;5002794;28;20136;-49
2022/12/02 03:56:45;;;;;;;35.50;2.92;;;;;;;3.25;79.09;101318.88;5004591;28;20133;-48
2022/12/02 03:59:19;;;;;;;29.40;2.42;;;;;;;3.21;78.96;101316.97;5001771;28;20740;-52
2022/12/02 04:01:46;;;;;;;22.42;2.00;;;;;;;3.19;78.84;101311.78;5005117;28;20659;-48
2022/12/02 04:04:13;;;;;;;45.25;2.95;;;;;;;3.19;78.48;101311.78;4999216;28;20045;-53
2022/12/02 04:06:40;;;;;;;60.22;3.13;;;;;;;3.17;78.37;101304.78;5005269;28;20085;-46
2022/12/02 04:09:06;;;;;;;61.30;3.13;;;;;;;3.13;78.55;101303.78;5007754;28;20737;-50
2022/12/02 04:11:33;;;;;;;42.72;2.50;;;;;;;3.10;78.17;101303.63;5004437;28;20045;-49
2022/12/02 04:13:59;;;;;;;41.78;2.53;;;;;;;3.12;77.86;101306.28;5006794;28;20054;-51
2022/12/02 04:16:26;;;;;;;41.33;2.80;;;;;;;3.10;78.62;101307.91;5003153;28;20137;-48
2022/12/02 04:18:53;;;;;;;9.95;2.63;;;;;;;3.11;78.46;101304.53;5008296;28;20398;-46
2022/12/02 04:21:20;;;;;;;28.75;2.60;;;;;;;3.10;78.47;101297.66;5007852;28;20056;-50
2022/12/02 04:23:47;;;;;;;15.23;1.92;;;;;;;3.10;78.59;101302.78;5006670;28;20053;-50
2022/12/02 04:26:14;;;;;;;61.15;3.08;;;;;;;3.10;78.92;101297.66;5000888;28;20137;-45
2022/12/02 04:28:40;;;;;;;59.08;3.22;;;;;;;3.10;78.18;101302.78;5005192;28;20078;-50
2022/12/02 04:31:07;;;;;;;35.00;3.00;;;;;;;3.08;79.14;101285.63;5004822;28;20120;-49
2022/12/02 04:33:34;;;;;;;33.53;2.55;;;;;;;3.08;78.79;101284.78;5001797;28;20120;-52
2022/12/02 04:36:00;;;;;;;42.80;3.95;;;;;;;3.08;78.71;101283.06;5003959;28;20089;-51
2022/12/02 04:38:27;;;;;;;39.33;3.20;;;;;;;3.09;78.28;101286.53;5006300;28;20057;-51
2022/12/02 04:40:53;;;;;;;49.78;3.13;;;;;;;3.10;79.01;101284.84;5003597;28;20076;-52
2022/12/02 04:43:20;;;;;;;26.00;2.13;;;;;;;3.10;79.04;101278.03;5005414;28;20458;-54
2022/12/02 04:45:47;;;;;;;33.03;2.22;;;;;;;3.10;78.99;101282.28;4998144;28;20128;-53
2022/12/02 04:48:13;;;;;;;19.73;1.77;;;;;;;3.08;78.06;101272.84;5002459;28;20093;-47
2022/12/02 04:50:40;;;;;;;42.55;2.45;;;;;;;3.08;78.13;101275.41;5003848;28;20104;-48
2022/12/02 04:53:06;;;;;;;30.35;2.33;;;;;;;3.07;78.02;101268.53;4999661;28;20053;-50
2022/12/02 04:55:33;;;;;;;16.98;1.70;;;;;;;3.09;78.61;101271.16;5003706;28;20050;-48
2022/12/02 04:57:59;;;;;;;28.40;2.38;;;;;;;3.10;78.75;101266.94;5004628;28;20798;-51
2022/12/02 05:00:26;;;;;;;23.95;2.15;;;;;;;3.06;78.17;101264.22;5002856;28;20390;-50
2022/12/02 05:02:53;;;;;;;29.98;2.80;;;;;;;3.04;78.66;101263.25;5004747;28;20054;-49
2022/12/02 05:05:19;;;;;;;17.10;1.67;;;;;;;3.04;79.03;101258.13;5001846;28;20085;-49
2022/12/02 05:07:46;;;;;;;28.75;2.42;;;;;;;3.05;78.42;101257.34;5001981;28;20100;-46
2022/12/02 05:10:13;;;;;;;25.35;1.88;;;;;;;3.03;78.85;101258.94;5002785;28;20041;-52
2022/12/02 05:12:40;;;;;;;14.05;2.45;;;;;;;3.02;78.56;101254.63;5003839;28;20085;-49
2022/12/02 05:15:07;;;;;;;35.05;2.17;;;;;;;3.03;78.96;101256.38;5003201;28;20147;-46
2022/12/02 05:17:34;;;;;;;19.98;2.17;;;;;;;3.02;79.13;101258.88;5001107;28;20076;-52
2022/12/02 05:20:07;;;;;;;10.73;1.27;;;;;;;3.02;78.25;101259.75;5004987;28;20054;-50
2022/12/02 05:22:34;;;;;;;19.73;1.88;;;;;;;3.02;78.76;101257.19;5004130;28;20104;-51
2022/12/02 05:25:01;;;;;;;19.90;2.00;;;;;;;3.02;78.47;101267.44;5000769;28;20050;-49
2022/12/02 05:27:27;;;;;;;19.55;2.70;;;;;;;3.01;79.19;101263.09;5006382;28;20088;-50
2022/12/02 05:30:00;;;;;;;13.93;2.53;;;;;;;3.02;79.12;101264.00;4999883;28;20064;-48
2022/12/02 05:32:27;;;;;;;17.67;3.78;;;;;;;3.02;78.33;101270.00;5000922;28;20573;-46
2022/12/02 05:34:54;;;;;;;8.57;2.20;;;;;;;3.02;78.61;101270.00;5004528;28;20461;-47
2022/12/02 05:37:20;;;;;;;20.75;2.75;;;;;;;3.05;78.41;101266.69;5002794;28;20104;-50
2022/12/02 05:39:47;;;;;;;7.05;1.27;;;;;;;3.04;79.13;101263.25;5001975;28;20049;-51
2022/12/02 05:42:14;;;;;;;26.55;2.55;;;;;;;3.04;78.55;101258.13;4999976;28;20054;-50
2022/12/02 05:44:42;;;;;;;6.15;1.95;;;;;;;3.04;78.28;101268.38;5002031;28;20573;-44
2022/12/02 05:47:12;;;;;;;13.60;3.28;;;;;;;3.04;78.37;101268.38;4996102;28;20716;-52
2022/12/02 05:49:41;;;;;;;16.13;2.25;;;;;;;3.06;78.24;101269.34;4998350;28;20265;-50
2022/12/02 05:52:22;;;;;;;10.80;2.03;;;;;;;3.04;79.33;101263.25;5003853;28;20457;-51
2022/12/02 05:54:52;;;;;;;13.80;2.15;;;;;;;3.06;78.62;101259.09;5001448;28;20141;-49
2022/12/02 05:57:23;;;;;;;19.00;2.53;;;;;;;3.06;78.74;101259.09;5003016;28;20053;-50
2022/12/02 06:02:57;;;;;;;10.38;2.22;;;;;;;3.01;78.38;101260.53;5104127;27;20389;-47
2022/12/02 06:05:26;;;;;;;18.23;2.60;;;;;;;3.01;79.18;101263.09;5043974;28;20048;-49
2022/12/02 06:07:58;;;;;;;15.57;2.05;;;;;;;3.01;78.41;101257.97;5047459;28;20099;-47
2022/12/02 06:10:28;;;;;;;19.83;2.55;;;;;;;3.04;79.26;101255.56;5058091;28;20049;-54
2022/12/02 06:12:59;;;;;;;9.27;1.95;;;;;;;3.06;78.75;101253.97;5062053;28;20068;-48
2022/12/02 06:15:33;;;;;;;20.73;2.03;;;;;;;3.06;78.24;101251.41;5057449;28;20076;-49
2022/12/02 06:18:00;;;;;;;19.60;1.75;;;;;;;3.06;79.00;101250.53;5057056;28;20162;-51
2022/12/02 06:20:31;;;;;;;14.75;2.00;;;;;;;3.05;78.31;101251.34;5061405;28;20076;-48
2022/12/02 06:23:00;;;;;;;11.80;2.40;;;;;;;3.06;78.49;101246.31;5061523;28;20106;-51
2022/12/02 06:25:29;;;;;;;15.88;2.58;;;;;;;3.06;78.74;101250.53;5059171;28;20088;-52
2022/12/02 06:28:09;;;;;;;16.88;2.85;;;;;;;3.06;78.74;101247.97;5052057;28;20053;-46
2022/12/02 06:30:36;;;;;;;8.30;2.03;;;;;;;3.06;78.45;101236.06;5045977;28;20041;-46
2022/12/02 06:33:03;;;;;;;17.23;2.25;;;;;;;3.07;79.14;101237.81;5050926;28;20151;-46
2022/12/02 06:35:31;;;;;;;11.15;2.33;;;;;;;3.08;78.44;101244.69;5034738;28;20069;-49
2022/12/02 06:38:01;;;;;;;13.38;2.65;;;;;;;3.10;78.42;101239.63;5038110;28;20041;-46
2022/12/02 06:43:16;;;;;;;26.45;2.38;;;;;;;3.10;78.75;101241.34;5049217;28;20413;-48
2022/12/02 06:45:44;;;;;;;28.83;2.95;;;;;;;3.06;78.16;101246.31;5020499;28;20093;-49
2022/12/02 06:48:39;;;;;;;39.63;2.42;;;;;;;3.00;78.18;101235.75;5023227;28;20054;-48
2022/12/02 06:51:15;;;;;;;50.15;2.85;;;;;;;2.99;78.32;101234.00;5020810;28;20049;-45
2022/12/02 06:53:42;;;;;;;19.77;2.72;;;;;;;2.97;79.36;101235.59;5008331;28;20071;-46
2022/12/02 06:58:54;;;;;;;15.48;3.78;;;;;;;3.03;79.36;101232.47;5025282;28;20400;-49
2022/12/02 07:01:27;;;;;;;18.58;4.60;;;;;;;3.05;79.10;101236.00;5000291;28;20163;-47
2022/12/02 07:06:48;;;;;;;10.00;3.88;;;;;;;3.08;78.68;101238.69;5051511;28;20903;-49
2022/12/02 07:11:58;;;;;;;13.80;3.95;;;;;;;3.11;79.25;101237.97;5130218;27;21242;-49
2022/12/02 07:17:08;;;;;;;18.98;5.50;;;;;;;3.12;78.50;101234.59;5035241;28;20421;-49
2022/12/02 07:19:37;;;;;;;19.67;4.60;;;;;;;3.13;78.45;101236.31;5020637;28;20072;-48
2022/12/02 07:22:30;;;;;;;14.43;4.13;;;;;;;3.11;78.77;101241.41;5023058;28;20053;-47
2022/12/02 07:25:20;;;;;;;16.15;5.38;;;;;;;3.13;78.84;101242.34;5023731;28;20095;-46
2022/12/02 07:27:49;;;;;;;48.50;3.58;;;;;;;3.12;79.23;101244.81;5021477;28;20587;-45
2022/12/02 07:33:02;;;;;;;58.78;3.90;;;;;;;3.04;79.03;101247.91;5023957;27;20418;-48
2022/12/02 07:35:28;;;;;;;53.10;3.72;;;;;;;3.00;78.64;101251.13;5017874;28;20076;-49
2022/12/02 07:37:57;;;;;;;17.80;2.78;;;;;;;3.01;79.72;101246.88;5015617;28;20069;-49
2022/12/02 07:40:24;;;;;;;22.42;3.35;;;;;;;3.03;79.37;101258.94;5013837;28;20050;-48
2022/12/02 07:42:51;;;;;;;12.20;3.80;;;;;;;3.07;78.83;101252.28;5007477;28;20107;-48
2022/12/02 07:45:19;;;;;;;11.98;3.53;;;;;;;3.11;78.88;101253.31;5013433;28;20094;-45
2022/12/02 07:47:45;;;;;;;15.23;3.83;;;;;;;3.13;78.80;101251.69;5013477;28;20077;-45
2022/12/02 07:50:14;;;;;;;14.48;4.40;;;;;;;3.16;79.54;101262.09;5008967;28;20042;-51
2022/12/02 07:52:41;;;;;;;13.93;3.85;;;;;;;3.17;78.68;101258.72;5007755;28;20128;-52
2022/12/02 07:55:08;;;;;;;12.65;3.10;;;;;;;3.20;79.07;101258.88;5013451;28;20099;-51
2022/12/02 07:57:35;;;;;;;13.80;3.63;;;;;;;3.19;79.00;101257.13;5009605;28;20069;-51
2022/12/02 08:00:04;;;;;;;12.45;4.05;;;;;;;3.20;78.51;101263.97;5014058;28;20133;-46
2022/12/02 08:02:31;;;;;;;18.02;3.58;;;;;;;3.20;79.39;101259.75;5018450;28;20045;-50
2022/12/02 08:04:57;;;;;;;16.60;3.63;;;;;;;3.22;79.10;101262.38;5015961;28;20425;-50
2022/12/02 08:07:24;;;;;;;16.10;3.88;;;;;;;3.23;78.94;101264.13;5018212;28;20582;-48
2022/12/02 08:09:51;;;;;;;17.98;4.93;;;;;;;3.25;79.03;101267.66;5016647;28;20144;-51
2022/12/02 08:12:17;;;;;;;15.23;3.70;;;;;;;3.27;79.31;101265.16;5015805;28;20081;-52
2022/12/02 08:14:44;;;;;;;17.45;3.60;;;;;;;3.29;78.67;101269.56;5015803;28;20077;-50
2022/12/02 08:17:11;;;;;;;19.60;4.18;;;;;;;3.32;79.18;101264.56;5017252;28;20049;-48
2022/12/02 08:19:40;;;;;;;15.65;5.65;;;;;;;3.34;78.91;101262.94;5016363;28;20061;-52
2022/12/02 08:22:06;;;;;;;13.63;3.85;;;;;;;3.34;79.49;101268.06;5014270;28;20054;-46
2022/12/02 08:24:36;;;;;;;18.80;4.80;;;;;;;3.39;79.66;101262.28;5014298;28;20054;-49
2022/12/02 08:27:02;;;;;;;18.98;4.10;;;;;;;3.40;79.63;101266.59;5014697;28;20089;-48
2022/12/02 08:29:29;;;;;;;16.52;3.42;;;;;;;3.40;79.27;101274.28;5010898;28;20069;-47
2022/12/02 08:31:56;;;;;;;17.17;3.47;;;;;;;3.43;79.35;101266.75;5022814;28;20659;-48
2022/12/02 08:34:22;;;;;;;20.17;4.38;;;;;;;3.44;79.47;101268.50;5031475;28;20471;-49
2022/12/02 08:36:49;;;;;;;19.08;5.03;;;;;;;3.48;79.15;101267.84;5028045;28;20076;-48
2022/12/02 08:39:16;;;;;;;18.27;3.95;;;;;;;3.50;79.21;101262.78;5033794;28;20632;-53
2022/12/02 08:41:42;;;;;;;21.48;4.68;;;;;;;3.53;79.63;101275.72;5036878;28;20044;-47
2022/12/02 08:44:09;;;;;;;16.75;4.03;;;;;;;3.55;79.35;101272.41;5024367;28;20042;-46
2022/12/02 08:46:36;;;;;;;15.52;4.32;;;;;;;3.58;79.20;101276.84;5026133;28;20050;-44
2022/12/02 08:49:05;;;;;;;21.50;4.20;;;;;;;3.59;79.70;101279.44;5024977;28;20672;-46
2022/12/02 08:51:33;;;;;;;17.33;4.20;;;;;;;3.61;80.09;101276.94;5021873;28;20045;-51
2022/12/02 08:54:00;;;;;;;13.70;4.72;;;;;;;3.65;79.62;101278.00;5022115;28;20816;-49
2022/12/02 08:56:26;;;;;;;16.67;4.05;;;;;;;3.66;79.25;101279.72;5025335;28;20065;-48
2022/12/02 08:58:53;;;;;;;16.65;4.65;;;;;;;3.68;79.61;101278.13;5027231;28;20087;-57
2022/12/02 09:01:19;;;;;;;18.25;3.65;;;;;;;3.70;79.74;101281.63;5019601;28;20042;-49
2022/12/02 09:03:46;;;;;;;15.80;4.40;;;;;;;3.72;79.70;101285.16;5028802;28;20562;-50
2022/12/02 09:06:13;;;;;;;22.45;4.10;;;;;;;3.75;80.25;101289.53;5027148;28;20742;-45
2022/12/02 09:08:39;;;;;;;19.08;5.32;;;;;;;3.77;79.62;101283.66;5024984;28;20072;-52
2022/12/02 09:11:06;;;;;;;21.63;4.78;;;;;;;3.80;79.50;101282.91;5026314;28;20129;-50
2022/12/02 09:13:33;;;;;;;17.75;4.50;;;;;;;3.83;79.91;101283.94;5023717;28;20402;-46
2022/12/02 09:15:59;;;;;;;17.15;4.22;;;;;;;3.89;80.53;101279.91;5023115;28;20129;-49
2022/12/02 09:18:26;;;;;;;23.38;4.85;;;;;;;3.90;79.87;101274.84;5026008;28;20481;-48
2022/12/02 09:20:52;;;;;;;19.75;4.88;;;;;;;3.95;80.01;101282.75;5020515;28;20081;-47
2022/12/02 09:23:20;;;;;;;16.90;4.45;;;;;;;3.98;80.12;101278.63;5019872;28;20080;-49
2022/12/02 09:25:46;;;;;;;20.60;4.68;;;;;;;4.02;80.04;101282.19;5023446;28;20054;-48
2022/12/02 09:28:13;;;;;;;19.10;5.18;;;;;;;4.06;79.99;101278.94;5014706;28;20077;-53
2022/12/02 09:30:39;;;;;;;18.63;4.22;;;;;;;4.12;79.92;101280.91;5013057;28;20045;-50
2022/12/02 09:33:06;;;;;;;19.52;5.10;;;;;;;4.19;80.20;101297.44;5017620;28;20038;-52
2022/12/02 09:35:32;;;;;;;16.48;4.25;;;;;;;4.26;80.01;101294.34;5013975;28;20107;-54
2022/12/02 09:38:00;;;;;;;17.00;4.55;;;;;;;4.34;80.00;101300.69;5011710;28;20088;-47
2022/12/02 09:40:27;;;;;;;21.95;4.85;;;;;;;4.43;80.15;101304.44;5012264;28;20041;-50
2022/12/02 09:42:54;;;;;;;20.85;5.97;;;;;;;4.51;80.21;101295.38;5011970;28;20054;-51
2022/12/02 09:45:20;;;;;;;24.15;5.45;;;;;;;4.61;79.93;101289.84;5010485;28;20195;-51
2022/12/02 09:47:47;;;;;;;25.00;4.78;;;;;;;4.68;80.32;101287.50;5018034;28;20049;-51
2022/12/02 09:50:16;;;;;;;24.23;5.68;;;;;;;4.72;79.73;101284.25;5015489;28;20084;-52
2022/12/02 09:52:44;;;;;;;22.38;5.70;;;;;;;4.76;79.49;101281.00;5028351;28;20051;-51
2022/12/02 09:55:13;;;;;;;14.65;3.72;;;;;;;4.81;80.25;101289.78;5007499;28;20069;-49
2022/12/02 09:57:40;;;;;;;17.73;4.53;;;;;;;4.84;80.38;101284.78;5016342;28;20053;-49
2022/12/02 10:00:18;;;;;;;21.23;5.43;;;;;;;4.87;80.46;101284.88;5025741;28;20494;-48
2022/12/02 10:02:49;;;;;;;18.90;4.63;;;;;;;4.92;79.51;101295.34;5009574;28;20045;-50
2022/12/02 10:07:55;;;;;;;33.58;7.93;;;;;;;5.40;80.58;101283.50;5056260;27;20417;-52
2022/12/02 10:10:26;;;;;;;22.23;5.88;;;;;;;5.25;80.34;101284.69;5009318;28;20041;-51
2022/12/02 10:12:53;;;;;;;21.08;6.22;;;;;;;5.22;79.99;101281.09;4996717;28;20132;-53
2022/12/02 10:15:26;;;;;;;15.95;5.45;;;;;;;5.25;80.75;101286.34;5014121;28;20759;-53
2022/12/02 10:17:54;;;;;;;19.85;5.45;;;;;;;5.27;79.89;101279.59;5015044;28;20108;-50
2022/12/02 10:20:24;;;;;;;17.83;4.95;;;;;;;5.31;80.88;101281.47;5005924;28;20509;-53
2022/12/02 10:25:47;;;;;;;19.25;5.30;;;;;;;5.40;79.52;101286.94;5030579;27;20731;-51
2022/12/02 10:28:20;;;;;;;;;;;;;;;5.39;80.13;101285.22;5013145;28;20088;-53
2022/12/02 10:30:50;;;;;;;17.38;4.85;;;;;;;5.48;81.05;101284.69;5015167;28;20008;-49
2022/12/02 10:33:17;;;;;;;20.05;6.03;;;;;;;5.59;79.70;101290.22;5008956;28;20069;-52
2022/12/02 10:35:47;;;;;;;22.20;4.97;;;;;;;5.64;80.15;101280.13;5007922;28;20081;-52
2022/12/02 10:41:24;;;;;;;18.67;4.32;;;;;;;5.72;79.17;101272.69;5035187;27;20414;-49
2022/12/02 10:46:29;;;;;;;20.08;5.03;;;;;;;5.81;80.23;101270.44;5063059;27;20396;-49
2022/12/02 10:49:14;;;;;;;19.17;5.18;;;;;;;5.82;80.63;101279.94;5013577;28;20052;-53
2022/12/02 10:51:40;;;;;;;19.52;3.97;;;;;;;5.88;79.77;101280.13;5017656;28;20049;-52
2022/12/02 10:54:20;;;;;;;26.80;6.13;;;;;;;5.92;80.30;101278.56;5018862;28;20080;-50
2022/12/02 10:56:47;;;;;;;19.05;5.45;;;;;;;5.96;80.83;101267.56;5031414;28;20132;-53
2022/12/02 10:59:15;;;;;;;22.13;5.05;;;;;;;6.00;79.83;101268.53;5025076;28;20084;-51
2022/12/02 11:01:43;;;;;;;14.45;4.70;;;;;;;6.07;80.49;101265.41;5039211;28;20052;-51
2022/12/02 11:04:13;;;;;;;19.35;4.95;;;;;;;6.13;80.33;101264.75;5037494;28;20047;-53
2022/12/02 11:06:41;;;;;;;19.08;5.57;;;;;;;6.20;80.74;101266.72;5026390;28;20100;-51
2022/12/02 11:09:14;;;;;;;21.05;6.82;;;;;;;6.32;79.47;101270.53;5021156;28;20452;-52
2022/12/02 11:12:40;;;;;;;16.92;4.70;;;;;;;6.45;80.55;101258.97;5021244;28;20064;-52
2022/12/02 11:18:32;;;;;;;14.60;5.72;;;;;;;6.66;79.09;101262.25;5019449;27;20406;-53
2022/12/02 11:23:39;;;;;;;19.92;7.30;;;;;;;6.67;79.14;101256.28;5036928;28;20923;-53
2022/12/02 11:26:08;;;;;;;19.92;6.93;;;;;;;6.68;79.93;101260.59;5026196;28;20069;-53
2022/12/02 11:28:37;;;;;;;18.80;6.60;;;;;;;6.69;78.90;101257.19;5035345;28;20044;-54
2022/12/02 11:36:38;;;;;;;18.88;6.97;;;;;;;6.94;79.20;101255.44;5068379;27;20409;-53
2022/12/02 11:39:07;;;;;;;21.75;8.23;;;;;;;7.04;78.37;101255.72;5052165;28;20045;-54
2022/12/02 11:44:28;;;;;;;16.20;4.68;;;;;;;6.99;79.35;101247.81;5020473;27;20417;-52
2022/12/02 11:46:58;;;;;;;22.33;6.13;;;;;;;6.95;79.32;101248.56;5016249;28;20661;-54
2022/12/02 11:52:16;;;;;;;19.75;5.32;;;;;;;6.88;79.61;101244.94;5031206;28;20405;-54
2022/12/02 11:54:48;;;;;;;22.50;5.57;;;;;;;6.87;78.74;101245.75;4998057;28;20141;-56
2022/12/02 11:59:58;;;;;;;18.80;5.55;;;;;;;6.98;78.46;101237.47;5017767;27;20767;-56
2022/12/02 12:02:24;;;;;;;22.27;6.22;;;;;;;7.05;78.75;101229.13;5017665;28;20077;-53
2022/12/02 12:05:03;;;;;;;19.35;5.80;;;;;;;7.03;78.65;101234.22;5016406;28;20473;-54
2022/12/02 12:07:48;;;;;;;28.05;6.05;;;;;;;6.97;78.40;101235.72;5016930;28;20065;-51
2022/12/02 12:13:19;;;;;;;20.90;4.97;;;;;;;6.98;79.57;101235.78;5045420;28;20409;-54
2022/12/02 12:16:01;;;;;;;25.77;7.00;;;;;;;6.96;79.47;101234.00;5005538;28;20058;-53
2022/12/02 12:18:46;;;;;;;20.75;5.43;;;;;;;6.90;78.84;101235.56;5007605;28;20086;-54
2022/12/02 12:27:10;;;;;;;33.83;9.68;;;;;;;7.30;78.56;101224.72;5095725;27;20416;-55
2022/12/02 12:29:39;;;;;;;23.85;7.22;;;;;;;7.23;79.14;101225.38;5062718;27;20041;-55
2022/12/02 12:32:08;;;;;;;28.75;6.15;;;;;;;7.33;78.33;101219.66;5057427;28;20075;-55
2022/12/02 12:34:35;;;;;;;24.80;6.40;;;;;;;7.38;79.03;101218.09;5055146;28;20049;-54
2022/12/02 12:37:02;;;;;;;20.77;7.18;;;;;;;7.44;79.67;101213.09;5062954;28;20117;-51
2022/12/02 12:39:28;;;;;;;18.25;5.55;;;;;;;7.48;79.33;101197.72;5072944;28;20087;-52
2022/12/02 12:41:55;;;;;;;28.92;6.95;;;;;;;7.53;79.25;101191.00;5054871;28;20449;-53